This is the latest recevied weather packets stored in our database for station/object IN3MWE-10. If no packets are shown the sender has not sent any weather packets the latest 10 day(s).
| Time | Temp. | Humidity | Pressure | Rain* | Wind** | Luminosity | Snow |
|---|---|---|---|---|---|---|---|
| 1777309521 | 23.33° C | 34% | 977 hPa | - | - | - | - |
| 1777308621 | 23.89° C | 33% | 976.9 hPa | - | - | - | - |
| 1777307720 | 23.89° C | 33% | 977 hPa | - | - | - | - |
| 1777306820 | 25° C | 31% | 977 hPa | - | - | - | - |
| 1777305920 | 26.11° C | 29% | 976.7 hPa | - | - | - | - |
| 1777305020 | 26.11° C | 29% | 976.8 hPa | - | - | - | - |
| 1777304120 | 27.78° C | 26% | 976.8 hPa | - | - | - | - |
| 1777303220 | 27.78° C | 26% | 976.7 hPa | - | - | - | - |
| 1777302320 | 27.78° C | 26% | 976.8 hPa | - | - | - | - |
| 1777301420 | 28.89° C | 24% | 976.7 hPa | - | - | - | - |
| 1777300520 | 30° C | 22% | 977 hPa | - | - | - | - |
| 1777299619 | 30° C | 21% | 977 hPa | - | - | - | - |
| 1777298719 | 31.11° C | 21% | 976.9 hPa | - | - | - | - |
| 1777297819 | 30.56° C | 22% | 977.3 hPa | - | - | - | - |
| 1777296919 | 27.22° C | 26% | 977.4 hPa | - | - | - | - |
| 1777296019 | 28.33° C | 23% | 977.5 hPa | - | - | - | - |
| 1777295119 | 31.11° C | 20% | 977.6 hPa | - | - | - | - |
| 1777294218 | 30.56° C | 20% | 978 hPa | - | - | - | - |
| 1777293318 | 31.67° C | 19% | 978.1 hPa | - | - | - | - |
| 1777292418 | 32.22° C | 19% | 978.3 hPa | - | - | - | - |
| 1777291518 | 33.33° C | 18% | 978.4 hPa | - | - | - | - |
| 1777290618 | 30.56° C | 21% | 978.9 hPa | - | - | - | - |
| 1777289718 | 33.33° C | 19% | 979.2 hPa | - | - | - | - |
| 1777288818 | 32.78° C | 19% | 979.3 hPa | - | - | - | - |
| 1777287917 | 28.33° C | 24% | 979.6 hPa | - | - | - | - |
* Rain since midnight (hover to see other rain measurements)
** Current wind speed in m/s (hover to see current wind gust speed)